• Join FlightAware (Why Join?)
  • Login
  • US Flag 
09:58PM EDT


 

Airport Tracker/Info


-or-


 

Live Flight TrackerFlight Track Log ✈ AWE1913 ✈ 08-Apr-2013 ✈ KPHL - MYNN / NAS

Flight Track Log - Related Links

Times and Time Zones

All times are in EDT time to prevent confusion due to time zone crossing. See the AWE1913 flight status page for this flight to view local times or setup timezone preferences in your user account.

Time Position Orientation Groundspeed Altitude Reporting Facility
EDT Latitude Longitude Course Direction KTS MPH feet Rate Location/Type
10:06AM 39.8608 -75.2744 194° South 151 174 700  Level FAA TRACON SMA TRACON (SMA)
10:07AM 39.8508 -75.2925 234° Southwest 170 196 1,400 1,500 Climbing FAA TRACON SMA TRACON (SMA)
10:07AM 39.8378 -75.3053 217° Southwest 194 223 1,700 1,320 Climbing FAA TRACON SMA TRACON (SMA)
10:07AM 39.8233 -75.3192 216° Southwest 204 235 2,300 2,040 Climbing FAA TRACON SMA TRACON (SMA)
10:08AM 39.8036 -75.3378 216° Southwest 226 260 3,200 2,340 Climbing FAA TRACON SMA TRACON (SMA)
10:08AM 39.7822 -75.3575 215° Southwest 247 284 4,000 2,400 Climbing FAA TRACON SMA TRACON (SMA)
10:08AM 39.7689 -75.3697 215° Southwest 251 289 4,700 3,240 Climbing FAA TRACON SMA TRACON (SMA)
10:09AM 39.5780 -75.3011 189° South  Level FlightAware Approximate
10:09AM 39.7444 -75.3858 207° Southwest 259 298 6,000  Level FAA TRACON SMA TRACON (SMA)
10:09AM 39.7214 -75.3869 182° South 276 318 6,800 2,520 Climbing FAA TRACON SMA TRACON (SMA)
10:09AM 39.6914 -75.3856 178° South 282 325 7,700 2,820 Climbing FAA TRACON SMA TRACON (SMA)
10:10AM 39.4793 -75.3236 194° South  Level FlightAware Approximate
10:10AM 39.6669 -75.3864 182° South 282 325 8,700  Level FAA TRACON SMA TRACON (SMA)
10:10AM 39.6431 -75.3864 180° South 281 323 9,900 2,820 Climbing FAA TRACON SMA TRACON (SMA)
10:10AM 39.6197 -75.3864 180° South 275 316 10,600 1,800 Climbing FAA TRACON SMA TRACON (SMA)
10:11AM 39.3801 -75.3393 185° South  Level FlightAware Approximate
10:11AM 39.5892 -75.3861 180° South 289 333 11,100  Level FAA TRACON SMA TRACON (SMA)
10:11AM 39.5614 -75.3858 180° South 325 374 11,300 720 Climbing FAA TRACON SMA TRACON (SMA)
10:11AM 39.5325 -75.3853 179° South 343 395 11,600 1,620 Climbing FAA TRACON SMA TRACON (SMA)
10:12AM 39.2802 -75.3511 194° South  Level FlightAware Approximate
10:12AM 39.4944 -75.3850 180° South 358 412 12,400  Level FAA TRACON SMA TRACON (SMA)
10:12AM 39.4636 -75.3847 180° South 357 411 13,200 2,400 Climbing FAA TRACON SMA TRACON (SMA)
10:12AM 39.4247 -75.3842 179° South 362 417 14,000 2,340 Climbing FAA TRACON SMA TRACON (SMA)
10:13AM 39.3942 -75.3822 177° South 365 420 14,800 1,980 Climbing FAA TRACON SMA TRACON (SMA)
10:13AM 39.3619 -75.3831 181° South 368 423 15,400 2,040 Climbing FAA TRACON SMA TRACON (SMA)
10:13AM 39.3214 -75.3825 179° South 374 430 16,200 1,920 Climbing FAA TRACON SMA TRACON (SMA)
10:14AM 39.2889 -75.3819 179° South 378 435 16,700 1,020 Climbing FAA TRACON SMA TRACON (SMA)
10:14AM 39.2467 -75.3814 179° South 387 445 16,900 420 Climbing FAA TRACON SMA TRACON (SMA)
10:14AM 39.2386 -75.3819 183° South 390 449 17,000 120 Climbing FAA TRACON SMA TRACON (SMA)
10:15AM 39.2386 -75.3819 288° West 390 449 17,000 1,560 Level FAA TRACON SMA TRACON (SMA)
10:15AM 39.1153 -75.4017 187° South 385 443 18,500 1,800 Climbing Washington Center
10:16AM 39.0175 -75.4125 185° South 385 443 19,900 1,620 Climbing Washington Center
10:17AM 38.9047 -75.4289 186° South 402 463 21,800 1,680 Climbing Washington Center
10:18AM 38.7881 -75.4478 187° South 416 479 23,300 1,260 Climbing Washington Center
10:19AM 38.6733 -75.4642 186° South 427 491 24,400 1,080 Climbing Washington Center
10:20AM 38.5422 -75.4775 185° South 444 511 25,500 1,080 Climbing Washington Center
10:21AM 38.4192 -75.4989 188° South 455 524 26,600 1,080 Climbing Washington Center
10:22AM 38.2942 -75.5231 189° South 462 532 27,700 1,140 Climbing Washington Center
10:23AM 38.1647 -75.5417 186° South 467 537 28,900 1,200 Climbing Washington Center
10:24AM 38.0250 -75.5706 189° South 467 537 30,200 1,200 Climbing Washington Center
10:25AM 37.8958 -75.5892 186° South 467 537 31,400 1,380 Climbing Washington Center
10:26AM 37.7706 -75.6156 189° South 467 537 33,000 1,200 Climbing Washington Center
10:27AM 37.6600 -75.6758 203° Southwest 448 516 33,900 480 Climbing Washington Center
10:28AM 37.5517 -75.7411 206° Southwest 437 503 34,000 60 Climbing Washington Center
10:29AM 37.4431 -75.8064 206° Southwest 437 503 34,100 480 Climbing Washington Center
10:30AM 37.3386 -75.8689 205° Southwest 426 490 35,000 840 Climbing Washington Center
10:31AM 37.2319 -75.9336 206° Southwest 426 490 35,800 480 Climbing Washington Center
10:32AM 37.1275 -75.9956 205° Southwest 426 490 36,000 60 Climbing Washington Center
10:33AM 37.0208 -76.0575 205° Southwest 426 490 36,000  Level Washington Center
10:34AM 36.9228 -76.1117 204° Southwest 427 491 36,000  Level Washington Center
10:35AM 36.8161 -76.1731 205° Southwest 427 491 36,000  Level Washington Center
10:36AM 36.6989 -76.2472 207° Southwest 427 491 36,000  Level Washington Center
10:37AM 36.5919 -76.3086 205° Southwest 427 491 36,000  Level Washington Center
10:38AM 36.4811 -76.3722 205° Southwest 427 491 36,000  Level Washington Center
10:39AM 36.3722 -76.4331 204° Southwest 427 491 36,000  Level Washington Center
10:40AM 36.2611 -76.4986 205° Southwest 427 491 36,000  Level Washington Center
10:41AM 36.1522 -76.5592 204° Southwest 427 491 36,000 -60 Level Washington Center
10:42AM 36.0431 -76.6222 205° Southwest 427 491 35,900  Descending Washington Center
10:43AM 35.9361 -76.6822 204° Southwest 427 491 36,000  Climbing Washington Center
10:44AM 35.8272 -76.7447 205° Southwest 427 491 36,000 -60 Level Washington Center
10:45AM 35.7264 -76.8022 205° Southwest 432 497 35,900  Descending Washington Center
10:46AM 35.6236 -76.8619 205° Southwest 426 490 36,000  Climbing Washington Center
10:47AM 35.5144 -76.9242 205° Southwest 420 483 36,000  Level Washington Center
10:48AM 35.4053 -76.9833 204° Southwest 426 490 36,000  Level Washington Center
10:49AM 35.2981 -77.0453 205° Southwest 431 496 36,000  Level Washington Center
10:50AM 35.1867 -77.1092 205° Southwest 431 496 36,000  Level Washington Center
10:51AM 35.0817 -77.1683 205° Southwest 425 489 36,000  Level Washington Center
10:52AM 34.9722 -77.2269 204° Southwest 430 495 36,000  Level Washington Center
10:53AM 34.8650 -77.2881 205° Southwest 425 489 36,000 -60 Level Washington Center
10:54AM 34.7597 -77.3492 205° Southwest 430 495 35,900 -60 Descending Washington Center
10:55AM 34.6506 -77.4097 205° Southwest 430 495 35,900  Level Washington Center
10:56AM 34.5392 -77.4578 200° South 430 495 36,000  Climbing Washington Center
10:57AM 34.4178 -77.4828 190° South 435 501 36,000  Level Washington Center
10:58AM 34.2942 -77.5025 188° South 440 506 36,000  Level Washington Center
10:59AM 34.1750 -77.5222 188° South 446 513 36,000  Level Washington Center
11:00AM 34.0711 -77.5381 187° South 445 512 36,000  Level Jacksonville Center
11:01AM 33.9492 -77.5606 189° South 450 518 36,000  Level Jacksonville Center
11:02AM 33.8308 -77.5775 187° South 443 510 36,000  Level Jacksonville Center
11:03AM 33.7069 -77.6050 190° South 443 510 36,000  Level Jacksonville Center
11:04AM 33.5844 -77.6250 188° South 443 510 36,000  Level Jacksonville Center
11:05AM 33.4625 -77.6469 189° South 443 510 36,000  Level Jacksonville Center
11:06AM 33.3422 -77.6667 188° South 443 510 36,000  Level Jacksonville Center
11:07AM 33.2178 -77.6889 188° South 443 510 36,000  Level Jacksonville Center
11:08AM 33.0958 -77.7133 190° South 443 510 36,000  Level Jacksonville Center
11:09AM 32.9756 -77.7300 187° South 443 510 36,000  Level Jacksonville Center
11:10AM 32.8553 -77.7519 189° South 443 510 36,000  Level Jacksonville Center
11:11AM 32.7331 -77.7736 188° South 443 510 36,000  Level Jacksonville Center
11:12AM 32.6106 -77.7903 187° South 443 510 36,000  Level Jacksonville Center
11:13AM 32.4883 -77.8119 189° South 443 510 36,000  Level Jacksonville Center
11:14AM 32.3661 -77.8386 190° South 443 510 36,000  Level Jacksonville Center
11:15AM 32.2458 -77.8525 186° South 443 510 36,000  Level Jacksonville Center
11:16AM 32.1203 -77.8447 177° South 443 510 36,000  Level Jacksonville Center
11:17AM 31.9922 -77.8297 174° South 443 510 36,000  Level Jacksonville Center
11:18AM 31.8669 -77.8269 179° South 448 516 36,000  Level Jacksonville Center
11:19AM 31.7414 -77.8217 178° South 448 516 36,000  Level Jacksonville Center
11:20AM 31.6161 -77.8161 178° South 448 516 36,000  Level Jacksonville Center
11:21AM 31.4906 -77.8108 178° South 448 516 36,000  Level Jacksonville Center
11:22AM 31.3650 -77.8006 176° South 448 516 36,000  Level Jacksonville Center
11:23AM 31.2375 -77.7956 178° South 454 522 36,000  Level Jacksonville Center
11:24AM 31.1097 -77.7856 176° South 459 528 36,000  Level Jacksonville Center
11:25AM 30.9822 -77.7803 178° South 464 534 36,000  Level Jacksonville Center
11:26AM 30.8586 -77.7675 175° South 459 528 36,000 -60 Level Jacksonville Center
11:27AM 30.7331 -77.7622 178° South 459 528 35,900  Descending Jacksonville Center
11:28AM 30.6056 -77.7569 178° South 459 528 36,000  Climbing Jacksonville Center
11:30AM 30.3547 -77.7525 179° South 477 549 36,000  Level Miami Center
11:31AM 30.2400 -77.7539 181° South 455 524 36,000  Level Miami Center
11:32AM 30.1108 -77.7408 175° South 451 519 36,000  Level Miami Center
11:33AM 29.9878 -77.7375 179° South 451 519 36,000  Level Miami Center
11:34AM 29.8608 -77.7292 177° South 456 525 36,000  Level Miami Center
11:35AM 29.7314 -77.7186 176° South 464 534 36,000  Level Miami Center
11:36AM 29.6064 -77.7128 178° South 458 527 36,000  Level Miami Center
11:37AM 29.4814 -77.7047 177° South 458 527 36,000  Level Miami Center
11:38AM 29.3561 -77.6989 178° South 452 520 36,000  Level Miami Center
11:39AM 29.2247 -77.6886 176° South 460 529 36,000  Level Miami Center
11:40AM 29.0997 -77.6828 178° South 460 529 36,000  Level Miami Center
11:41AM 28.9703 -77.6747 177° South 460 529 36,000  Level Miami Center
11:42AM 28.8431 -77.6667 177° South 460 529 36,000 -420 Level Miami Center
11:43AM 28.7200 -77.6586 177° South 451 519 35,200 -900 Descending Miami Center
11:44AM 28.5928 -77.6531 178° South 451 519 34,200 -600 Descending Miami Center
11:45AM 28.4675 -77.6450 177° South 459 528 34,000 -120 Descending Miami Center
11:46AM 28.3422 -77.6372 177° South 459 528 34,000  Level Miami Center
11:47AM 28.2169 -77.6292 177° South 460 529 34,000  Level Miami Center
11:48AM 28.0919 -77.6214 177° South 455 524 34,000  Level Miami Center
11:49AM 27.9625 -77.6158 178° South 461 531 34,000  Level Miami Center
11:50AM 27.8392 -77.6056 176° South 456 525 34,000 -60 Level Miami Center
11:51AM 27.7119 -77.6000 178° South 456 525 33,900  Descending Miami Center
11:52AM 27.5908 -77.5992 180° South 467 537 34,000  Climbing Miami Center
11:53AM 27.4614 -77.5914 177° South 467 537 34,000  Level Miami Center
11:54AM 27.3339 -77.5858 178° South 467 537 34,000 -420 Level Miami Center
11:55AM 27.2044 -77.5781 177° South 462 532 33,200 -1,260 Descending Miami Center
11:56AM 27.0689 -77.5656 175° South 457 526 31,500 -1,800 Descending Miami Center
11:57AM 26.9414 -77.5556 176° South 457 526 29,700 -1,740 Descending Miami Center
11:58AM 26.8142 -77.5500 178° South 463 533 28,100 -1,620 Descending Miami Center
11:59AM 26.6928 -77.5425 177° South 451 519 26,500 -1,620 Descending Miami Center
12:00PM 26.5739 -77.5325 176° South 440 506 24,900 -1,560 Descending Miami Center
12:01PM 26.4569 -77.5342 181° South 434 499 23,400 -1,560 Descending Miami Center
12:02PM 26.3400 -77.5219 175° South 428 493 21,800 -1,800 Descending Miami Center
12:03PM 26.2292 -77.5142 176° South 415 478 19,800 -1,980 Descending Miami Center
12:04PM 26.1183 -77.5114 179° South 405 466 17,900 -1,860 Descending Miami Center
12:05PM 26.0119 -77.5039 176° South 393 452 16,100 -1,980 Descending Miami Center
12:06PM 25.9094 -77.4986 177° South 381 438 14,000 -1,560 Descending Miami Center
12:07PM 25.8133 -77.4958 179° South 368 423 13,000 -1,080 Descending Miami Center
12:08PM 25.7258 -77.4886 176° South 339 390 11,900 -1,500 Descending Miami Center
12:09PM 25.6422 -77.4881 180° South 316 364 10,000 -1,920 Descending Miami Center
12:11PM 25.4584 -77.4676 174° South  Level FlightAware Approximate
12:18PM 25.0333 -77.4500 170° South  Level FlightAware Approximate
12:19PM 25.0390 -77.4662 170° South  Level Estimated
12:20PM 25.0390 -77.4662 170° South  Level Estimated